Time;durP1;ratioP1;P1;durP2;ratioP2;P2;SDS_P1;SDS_P2;PMS_P1;PMS_P2;Temp;Humidity;BMP_temperature;BMP_pressure;BME280_temperature;BME280_humidity;BME280_pressure;Samples;Min_cycle;Max_cycle;Signal;HPM_P1;HPM_P2
2022/07/19 00:00:40;;;;;;;0.00;0.00;;;26.10;59.00;;;;;;4192257;28;20060;-63
2022/07/19 00:03:02;;;;;;;2.13;0.88;;;26.00;59.00;;;;;;4192588;28;20062;-63
2022/07/19 00:05:26;;;;;;;0.40;0.40;;;26.00;59.00;;;;;;4190777;28;20078;-64
2022/07/19 00:07:48;;;;;;;0.25;0.15;;;26.00;59.00;;;;;;4175726;28;20408;-72
2022/07/19 00:10:12;;;;;;;0.00;0.00;;;26.00;59.10;;;;;;4175391;28;20149;-70
2022/07/19 00:12:34;;;;;;;0.00;0.00;;;26.00;59.10;;;;;;4175806;28;20056;-70
2022/07/19 00:14:55;;;;;;;1.08;0.85;;;26.00;59.10;;;;;;4175096;28;20535;-64
2022/07/19 00:17:17;;;;;;;0.57;0.57;;;26.00;59.20;;;;;;4175067;28;20480;-64
2022/07/19 00:19:39;;;;;;;0.00;0.00;;;25.90;59.50;;;;;;4190699;28;20056;-64
2022/07/19 00:22:09;;;;;;;0.20;0.20;;;25.90;59.20;;;;;;4192221;28;20147;-63
2022/07/19 00:24:31;;;;;;;0.10;0.10;;;25.90;59.20;;;;;;4190830;28;20060;-64
2022/07/19 00:26:53;;;;;;;0.00;0.00;;;25.90;59.20;;;;;;4192094;28;20052;-64
2022/07/19 00:29:15;;;;;;;0.00;0.00;;;25.90;59.20;;;;;;4190311;28;20256;-64
2022/07/19 00:31:37;;;;;;;0.00;0.00;;;25.90;59.30;;;;;;4192056;28;20119;-63
2022/07/19 00:33:59;;;;;;;0.00;0.00;;;25.90;59.30;;;;;;4191909;28;20079;-70
2022/07/19 00:36:22;;;;;;;0.05;0.05;;;25.90;59.30;;;;;;4191979;28;20045;-71
2022/07/19 00:38:45;;;;;;;0.10;0.10;;;25.90;59.30;;;;;;4190479;28;20090;-71
2022/07/19 00:41:07;;;;;;;0.00;0.00;;;25.90;59.30;;;;;;4185990;28;20076;-63
2022/07/19 00:43:30;;;;;;;0.00;0.00;;;25.90;59.40;;;;;;4193262;28;20052;-64
2022/07/19 00:45:51;;;;;;;0.10;0.10;;;25.90;59.50;;;;;;4194936;28;20045;-63
2022/07/19 00:48:13;;;;;;;0.30;0.30;;;25.90;59.40;;;;;;4192890;28;20106;-64
2022/07/19 00:50:35;;;;;;;0.00;0.00;;;25.80;59.40;;;;;;4194890;28;20048;-63
2022/07/19 00:53:00;;;;;;;0.00;0.00;;;25.80;59.40;;;;;;4194213;28;20406;-64
2022/07/19 00:55:26;;;;;;;0.10;0.10;;;25.80;60.20;;;;;;4194991;28;20114;-63
2022/07/19 00:57:48;;;;;;;0.00;0.00;;;25.80;59.50;;;;;;4192279;28;20624;-63
2022/07/19 01:00:12;;;;;;;0.00;0.00;;;25.80;59.50;;;;;;4178366;28;20044;-62
2022/07/19 01:02:35;;;;;;;0.00;0.00;;;25.80;59.50;;;;;;4177926;28;20072;-63
2022/07/19 01:04:57;;;;;;;0.00;0.00;;;25.80;59.50;;;;;;4178284;28;20060;-63
2022/07/19 01:07:19;;;;;;;0.00;0.00;;;25.80;59.50;;;;;;4178129;28;20530;-63
2022/07/19 01:09:42;;;;;;;0.00;0.00;;;25.80;59.60;;;;;;4193705;28;20051;-63
2022/07/19 01:12:07;;;;;;;0.00;0.00;;;25.80;60.40;;;;;;4194408;28;20449;-71
2022/07/19 01:14:29;;;;;;;0.10;0.10;;;25.70;59.50;;;;;;4194500;28;20109;-71
2022/07/19 01:16:51;;;;;;;0.00;0.00;;;25.70;59.60;;;;;;4188416;28;20056;-69
2022/07/19 01:19:14;;;;;;;0.00;0.00;;;25.70;59.70;;;;;;4178219;28;20045;-71
2022/07/19 01:21:37;;;;;;;1.13;1.02;;;25.70;59.70;;;;;;4177705;28;20087;-71
2022/07/19 01:23:59;;;;;;;0.00;0.00;;;25.70;59.80;;;;;;4177894;28;20055;-71
2022/07/19 01:26:21;;;;;;;0.00;0.00;;;25.70;59.80;;;;;;4180382;28;20125;-70
2022/07/19 01:28:44;;;;;;;0.00;0.00;;;25.70;59.80;;;;;;4182206;28;20040;-70
2022/07/19 01:31:07;;;;;;;0.00;0.00;;;25.70;59.80;;;;;;4162377;28;20041;-70
2022/07/19 01:33:29;;;;;;;0.43;0.20;;;25.60;59.80;;;;;;4176661;28;20483;-70
2022/07/19 01:35:51;;;;;;;0.00;0.00;;;25.60;59.90;;;;;;4177334;28;20122;-70
2022/07/19 01:38:15;;;;;;;0.00;0.00;;;25.70;59.90;;;;;;4177633;28;20111;-71
2022/07/19 01:40:37;;;;;;;0.13;0.13;;;25.60;59.80;;;;;;4190928;28;20102;-70
2022/07/19 01:42:59;;;;;;;0.20;0.20;;;25.60;59.80;;;;;;4177568;28;20558;-71
2022/07/19 01:45:21;;;;;;;0.00;0.00;;;25.60;59.90;;;;;;4193901;28;20045;-70
2022/07/19 01:47:44;;;;;;;1.27;1.17;;;25.60;59.90;;;;;;4193997;28;20109;-70
2022/07/19 01:50:08;;;;;;;0.20;0.20;;;25.60;59.90;;;;;;4192223;28;20045;-70
2022/07/19 01:52:30;;;;;;;0.10;0.10;;;25.60;59.90;;;;;;4193663;28;20044;-71
2022/07/19 01:54:53;;;;;;;0.00;0.00;;;25.60;60.00;;;;;;4193578;28;20494;-70
2022/07/19 01:57:15;;;;;;;0.00;0.00;;;25.60;60.00;;;;;;4193594;28;20055;-71
2022/07/19 01:59:38;;;;;;;0.52;0.52;;;25.60;60.00;;;;;;4177125;28;20510;-70
2022/07/19 02:01:59;;;;;;;0.85;0.85;;;25.60;60.10;;;;;;4177669;28;20051;-71
2022/07/19 02:04:21;;;;;;;0.00;0.00;;;25.50;60.00;;;;;;4176954;28;20149;-70
2022/07/19 02:06:43;;;;;;;0.00;0.00;;;25.60;60.20;;;;;;4177161;28;20056;-70
2022/07/19 02:09:05;;;;;;;0.20;0.20;;;25.50;60.10;;;;;;4178114;28;20106;-71
2022/07/19 02:11:36;;;;;;;0.00;0.00;;;25.50;60.10;;;;;;4176884;28;20095;-70
2022/07/19 02:13:59;;;;;;;0.10;0.10;;;25.50;60.10;;;;;;4193496;28;20475;-71
2022/07/19 02:16:21;;;;;;;1.65;0.80;;;25.50;60.10;;;;;;4193790;28;20059;-71
2022/07/19 02:18:43;;;;;;;0.08;0.08;;;25.50;60.20;;;;;;4193436;28;20048;-71
2022/07/19 02:21:06;;;;;;;0.20;0.20;;;25.50;60.20;;;;;;4183242;28;20095;-70
2022/07/19 02:23:28;;;;;;;0.00;0.00;;;25.50;60.20;;;;;;4176649;28;20049;-70
2022/07/19 02:25:50;;;;;;;0.00;0.00;;;25.50;60.20;;;;;;4193406;28;20074;-71
2022/07/19 02:28:13;;;;;;;5.95;0.98;;;25.50;60.30;;;;;;4192718;28;20394;-70
2022/07/19 02:30:35;;;;;;;0.00;0.00;;;25.40;60.20;;;;;;4192930;28;20055;-70
2022/07/19 02:32:57;;;;;;;16.45;1.13;;;25.40;60.30;;;;;;4192663;28;20133;-70
2022/07/19 02:35:20;;;;;;;0.00;0.00;;;25.40;60.30;;;;;;4192863;28;20048;-70
2022/07/19 02:37:42;;;;;;;0.17;0.17;;;25.40;60.30;;;;;;4192807;28;20136;-70
2022/07/19 02:40:05;;;;;;;0.00;0.00;;;25.40;60.30;;;;;;4176777;28;20598;-70
2022/07/19 02:42:27;;;;;;;1.13;1.08;;;25.40;60.30;;;;;;4175946;28;20503;-69
2022/07/19 02:44:50;;;;;;;0.00;0.00;;;25.40;60.40;;;;;;4193249;28;20051;-71
2022/07/19 02:47:12;;;;;;;0.30;0.30;;;25.40;60.40;;;;;;4192040;28;20040;-70
2022/07/19 02:49:34;;;;;;;0.00;0.00;;;25.30;60.40;;;;;;4175049;28;20061;-71
2022/07/19 02:51:56;;;;;;;0.00;0.00;;;25.40;60.60;;;;;;4176232;28;20059;-70
2022/07/19 02:54:18;;;;;;;0.00;0.00;;;25.30;60.60;;;;;;4175735;28;20060;-71
2022/07/19 02:56:40;;;;;;;0.00;0.00;;;25.30;60.60;;;;;;4192600;28;20044;-70
2022/07/19 02:59:01;;;;;;;0.00;0.00;;;25.30;60.60;;;;;;4193018;28;20048;-71
2022/07/19 03:01:25;;;;;;;0.00;0.00;;;25.30;60.60;;;;;;4192665;28;20045;-69
2022/07/19 03:03:48;;;;;;;0.00;0.00;;;25.30;60.60;;;;;;4190286;28;20059;-70
2022/07/19 03:06:10;;;;;;;0.65;0.65;;;25.30;60.70;;;;;;4190730;28;20075;-70
2022/07/19 03:08:32;;;;;;;0.10;0.10;;;25.30;60.70;;;;;;4185440;28;20049;-69
2022/07/19 03:10:54;;;;;;;0.55;0.55;;;25.30;60.70;;;;;;4176371;28;20047;-70
2022/07/19 03:13:16;;;;;;;0.00;0.00;;;25.30;60.70;;;;;;4176219;28;20127;-69
2022/07/19 03:15:39;;;;;;;0.00;0.00;;;25.30;60.70;;;;;;4175918;28;20060;-69
2022/07/19 03:18:02;;;;;;;0.35;0.35;;;25.30;60.80;;;;;;4189622;28;20599;-69
2022/07/19 03:20:24;;;;;;;0.00;0.00;;;25.20;60.70;;;;;;4176047;28;20186;-70
2022/07/19 03:22:46;;;;;;;0.10;0.10;;;25.20;60.70;;;;;;4175761;28;20059;-68
2022/07/19 03:25:09;;;;;;;0.00;0.00;;;25.20;60.70;;;;;;4191193;28;20565;-69
2022/07/19 03:27:31;;;;;;;0.10;0.10;;;25.20;60.70;;;;;;4192056;28;20053;-68
2022/07/19 03:29:53;;;;;;;0.00;0.00;;;25.20;60.70;;;;;;4191735;28;20554;-69
2022/07/19 03:32:15;;;;;;;0.00;0.00;;;25.20;60.70;;;;;;4192197;28;20083;-69
2022/07/19 03:34:38;;;;;;;0.00;0.00;;;25.20;60.70;;;;;;4175885;28;20053;-69
2022/07/19 03:37:00;;;;;;;0.85;0.85;;;25.20;60.80;;;;;;4175448;28;20411;-69
2022/07/19 03:39:22;;;;;;;0.20;0.20;;;25.20;60.90;;;;;;4175746;28;20261;-69
2022/07/19 03:41:44;;;;;;;0.00;0.00;;;25.10;60.70;;;;;;4175274;28;20151;-71
2022/07/19 03:44:06;;;;;;;0.80;0.80;;;25.10;60.70;;;;;;4159419;28;20095;-70
2022/07/19 03:46:29;;;;;;;0.10;0.10;;;25.10;60.70;;;;;;4159181;28;20072;-70
2022/07/19 03:48:51;;;;;;;0.95;0.57;;;25.10;60.70;;;;;;4175928;28;20045;-70
2022/07/19 03:51:15;;;;;;;0.13;0.13;;;25.10;60.70;;;;;;4190322;28;20063;-69
2022/07/19 03:53:37;;;;;;;0.10;0.10;;;25.10;60.80;;;;;;4192587;28;20052;-69
2022/07/19 03:55:59;;;;;;;0.00;0.00;;;25.10;60.80;;;;;;4191775;28;20048;-69
2022/07/19 03:58:21;;;;;;;1.98;1.65;;;25.10;60.80;;;;;;4192201;28;20131;-69
2022/07/19 04:00:45;;;;;;;0.10;0.10;;;25.10;60.80;;;;;;4184697;28;20052;-67
2022/07/19 04:03:07;;;;;;;0.08;0.08;;;25.10;60.80;;;;;;4174057;28;20060;-69
2022/07/19 04:05:29;;;;;;;0.00;0.00;;;25.10;60.90;;;;;;4175470;28;20060;-68
2022/07/19 04:07:53;;;;;;;0.32;0.32;;;25.10;60.80;;;;;;4175714;28;20041;-69
2022/07/19 04:10:15;;;;;;;0.00;0.00;;;25.10;60.90;;;;;;4158969;28;20057;-69
2022/07/19 04:12:37;;;;;;;0.00;0.00;;;25.10;60.80;;;;;;4159394;28;20572;-69
2022/07/19 04:15:00;;;;;;;0.38;0.38;;;25.10;60.80;;;;;;4175217;28;20140;-69
2022/07/19 04:17:23;;;;;;;0.10;0.10;;;25.00;60.70;;;;;;4179091;28;20090;-70
2022/07/19 04:19:46;;;;;;;0.03;0.03;;;25.10;60.90;;;;;;4179676;28;20131;-69
2022/07/19 04:22:08;;;;;;;0.00;0.00;;;25.00;60.80;;;;;;4178879;28;20053;-69
2022/07/19 04:24:31;;;;;;;0.00;0.00;;;25.00;60.80;;;;;;4178696;28;20055;-68
2022/07/19 04:26:53;;;;;;;0.00;0.00;;;25.00;60.80;;;;;;4179017;28;20060;-69
2022/07/19 04:29:16;;;;;;;0.00;0.00;;;25.00;60.80;;;;;;4177165;28;20056;-69
2022/07/19 04:31:37;;;;;;;0.00;0.00;;;25.00;61.70;;;;;;4178793;28;20055;-69
2022/07/19 04:34:00;;;;;;;0.05;0.05;;;25.00;60.90;;;;;;4194007;28;20045;-69
2022/07/19 04:36:22;;;;;;;0.25;0.25;;;25.00;60.80;;;;;;4195397;27;20054;-67
2022/07/19 04:38:44;;;;;;;0.47;0.47;;;25.10;61.20;;;;;;4195212;28;20051;-67
2022/07/19 04:41:07;;;;;;;0.00;0.00;;;25.10;61.20;;;;;;4193533;28;20043;-68
2022/07/19 04:43:29;;;;;;;0.00;0.00;;;25.10;61.90;;;;;;4193549;28;20071;-69
2022/07/19 04:45:52;;;;;;;0.73;0.73;;;25.10;61.00;;;;;;4185130;28;20044;-68
2022/07/19 04:48:14;;;;;;;0.00;0.00;;;25.10;60.90;;;;;;4179690;28;20052;-68
2022/07/19 04:50:36;;;;;;;0.00;0.00;;;25.10;61.00;;;;;;4182530;28;20490;-69
2022/07/19 04:52:58;;;;;;;0.00;0.00;;;25.10;61.00;;;;;;4179110;28;20052;-69
2022/07/19 04:55:20;;;;;;;0.88;0.32;;;25.10;61.00;;;;;;4194310;28;20187;-69
2022/07/19 04:57:43;;;;;;;0.00;0.00;;;25.10;61.10;;;;;;4193975;28;20052;-68
2022/07/19 05:00:06;;;;;;;0.10;0.10;;;25.00;60.80;;;;;;4194420;28;20102;-69
2022/07/19 05:02:28;;;;;;;0.20;0.20;;;25.10;60.90;;;;;;4185283;28;20101;-69
2022/07/19 05:04:51;;;;;;;0.00;0.00;;;25.00;60.80;;;;;;4194730;28;20131;-69
2022/07/19 05:07:13;;;;;;;0.00;0.00;;;25.00;60.80;;;;;;4194559;28;20053;-68
2022/07/19 05:09:35;;;;;;;0.00;0.00;;;25.00;60.80;;;;;;4194453;28;20075;-69
2022/07/19 05:11:58;;;;;;;0.47;0.47;;;25.00;60.70;;;;;;4179318;28;20126;-68
2022/07/19 05:14:22;;;;;;;0.00;0.00;;;25.00;60.70;;;;;;4181266;28;20058;-68
2022/07/19 05:16:44;;;;;;;0.20;0.20;;;25.00;60.70;;;;;;4194030;28;20055;-68
2022/07/19 05:19:06;;;;;;;0.00;0.00;;;25.00;60.60;;;;;;4194572;28;20048;-63
2022/07/19 05:21:28;;;;;;;0.40;0.35;;;25.00;60.70;;;;;;4193965;28;20051;-64
2022/07/19 05:23:50;;;;;;;0.47;0.47;;;25.00;60.50;;;;;;4192820;28;20518;-63
2022/07/19 05:26:12;;;;;;;0.20;0.20;;;25.00;60.50;;;;;;4194086;28;20097;-63
2022/07/19 05:28:34;;;;;;;0.00;0.00;;;25.00;60.40;;;;;;4193688;28;20053;-63
2022/07/19 05:30:58;;;;;;;4.28;1.00;;;25.00;60.40;;;;;;4193705;28;20049;-64
2022/07/19 05:33:20;;;;;;;0.00;0.00;;;25.00;60.40;;;;;;4194530;28;20048;-64
2022/07/19 05:35:43;;;;;;;0.30;0.30;;;25.00;60.30;;;;;;4192941;28;20056;-64
2022/07/19 05:38:05;;;;;;;0.55;0.38;;;25.00;60.30;;;;;;4176543;28;20124;-64
2022/07/19 05:40:30;;;;;;;0.47;0.32;;;25.00;60.30;;;;;;4175819;28;20053;-64
2022/07/19 05:42:52;;;;;;;0.10;0.10;;;25.00;60.30;;;;;;4177730;28;20144;-64
2022/07/19 05:45:14;;;;;;;0.20;0.20;;;25.00;60.20;;;;;;4177508;28;20059;-64
2022/07/19 05:47:38;;;;;;;0.00;0.00;;;25.00;60.20;;;;;;4177145;28;20049;-64
2022/07/19 05:50:00;;;;;;;0.00;0.00;;;25.00;60.10;;;;;;4193232;28;20594;-64
2022/07/19 05:52:22;;;;;;;0.30;0.30;;;25.00;60.10;;;;;;4176184;28;20057;-64
2022/07/19 05:54:47;;;;;;;0.00;0.00;;;25.10;60.10;;;;;;4176289;28;20067;-64
2022/07/19 05:57:08;;;;;;;0.03;0.03;;;25.10;60.10;;;;;;4177440;28;20056;-64
2022/07/19 05:59:30;;;;;;;0.15;0.15;;;25.10;60.00;;;;;;4177424;28;20048;-64
2022/07/19 06:01:53;;;;;;;0.45;0.45;;;25.00;60.00;;;;;;4176954;28;20056;-63
2022/07/19 06:04:16;;;;;;;0.00;0.00;;;25.00;60.00;;;;;;4182269;28;20064;-64
2022/07/19 06:06:39;;;;;;;0.00;0.00;;;25.10;60.10;;;;;;4193400;28;20110;-64
2022/07/19 06:09:02;;;;;;;0.13;0.13;;;25.10;60.10;;;;;;4193005;28;20079;-65
2022/07/19 06:11:24;;;;;;;0.10;0.10;;;25.10;60.10;;;;;;4188517;28;20462;-64
2022/07/19 06:13:47;;;;;;;0.00;0.00;;;25.10;61.00;;;;;;4176492;28;20137;-64
2022/07/19 06:16:10;;;;;;;0.47;0.47;;;25.10;60.30;;;;;;4176743;28;20537;-63
2022/07/19 06:18:34;;;;;;;0.43;0.43;;;25.10;60.40;;;;;;4176891;28;20140;-63
2022/07/19 06:20:57;;;;;;;0.47;0.47;;;25.00;60.30;;;;;;4179530;28;20060;-65
2022/07/19 06:23:19;;;;;;;0.00;0.00;;;25.10;60.40;;;;;;4193161;28;20040;-65
2022/07/19 06:25:41;;;;;;;3.00;2.75;;;25.10;60.60;;;;;;4193600;28;20489;-65
2022/07/19 06:28:04;;;;;;;0.10;0.10;;;25.00;60.50;;;;;;4192054;28;20556;-65
2022/07/19 06:30:25;;;;;;;0.55;0.52;;;25.10;60.70;;;;;;4189910;28;20040;-64
2022/07/19 06:32:48;;;;;;;0.00;0.00;;;25.10;60.70;;;;;;4176412;28;20095;-65
2022/07/19 06:35:10;;;;;;;0.10;0.10;;;25.10;60.80;;;;;;4174077;28;20048;-63
2022/07/19 06:37:33;;;;;;;0.00;0.00;;;25.10;60.80;;;;;;4176276;28;20552;-64
2022/07/19 06:39:55;;;;;;;0.10;0.10;;;25.10;61.80;;;;;;4160290;28;20045;-63
2022/07/19 06:42:17;;;;;;;0.10;0.10;;;25.10;60.90;;;;;;4176729;28;20131;-64
2022/07/19 06:44:39;;;;;;;0.00;0.00;;;25.10;61.00;;;;;;4176860;28;20056;-63
2022/07/19 06:47:01;;;;;;;0.00;0.00;;;25.20;61.20;;;;;;4192522;28;20462;-64
2022/07/19 06:49:23;;;;;;;4.55;2.17;;;25.20;61.10;;;;;;4193013;28;20048;-64
2022/07/19 06:51:45;;;;;;;0.10;0.10;;;25.20;61.00;;;;;;4177399;28;20061;-64
2022/07/19 06:54:08;;;;;;;0.65;0.65;;;25.30;61.10;;;;;;4188302;28;20106;-64
2022/07/19 06:56:30;;;;;;;0.00;0.00;;;25.30;61.00;;;;;;4191494;28;20071;-65
2022/07/19 06:58:52;;;;;;;1.27;1.00;;;25.30;60.90;;;;;;4192243;28;20568;-64
2022/07/19 07:01:17;;;;;;;0.00;0.00;;;25.40;60.90;;;;;;4191806;28;20430;-64
2022/07/19 07:03:40;;;;;;;0.00;0.00;;;25.50;60.80;;;;;;4192257;28;20083;-64
2022/07/19 07:06:02;;;;;;;1.02;1.02;;;25.50;60.60;;;;;;4176148;28;20044;-63
2022/07/19 07:08:23;;;;;;;0.00;0.00;;;25.60;60.70;;;;;;4175738;28;20047;-64
2022/07/19 07:10:47;;;;;;;0.00;0.00;;;25.60;60.50;;;;;;4175659;28;20152;-63
2022/07/19 07:13:09;;;;;;;0.85;0.22;;;25.70;60.40;;;;;;4191821;28;20056;-64
2022/07/19 07:15:31;;;;;;;0.05;0.05;;;25.80;60.20;;;;;;4192550;28;20557;-64
2022/07/19 07:17:53;;;;;;;0.77;0.77;;;25.80;60.00;;;;;;4192522;28;20135;-64
2022/07/19 07:20:16;;;;;;;0.08;0.08;;;25.90;59.70;;;;;;4192603;28;20129;-64
2022/07/19 07:22:38;;;;;;;0.00;0.00;;;26.00;59.70;;;;;;4191508;28;20053;-64
2022/07/19 07:25:00;;;;;;;0.22;0.22;;;26.00;59.40;;;;;;4192402;28;20040;-64
2022/07/19 07:27:24;;;;;;;0.50;0.50;;;26.10;59.30;;;;;;4191435;28;20483;-65
2022/07/19 07:29:46;;;;;;;0.35;0.35;;;26.10;59.10;;;;;;4183372;28;20044;-64
2022/07/19 07:32:08;;;;;;;0.00;0.00;;;26.20;59.00;;;;;;4190569;28;20048;-65
2022/07/19 07:34:30;;;;;;;0.15;0.15;;;26.20;58.90;;;;;;4192326;28;20395;-64
2022/07/19 07:36:57;;;;;;;0.00;0.00;;;26.30;58.80;;;;;;4191804;28;20044;-63
2022/07/19 07:39:19;;;;;;;0.65;0.65;;;26.30;58.70;;;;;;4191972;28;20090;-64
2022/07/19 07:41:41;;;;;;;0.30;0.30;;;26.30;58.60;;;;;;4191935;28;20040;-65
2022/07/19 07:44:11;;;;;;;0.03;0.03;;;26.40;58.50;;;;;;4192194;28;20574;-65
2022/07/19 07:46:33;;;;;;;0.45;0.45;;;26.40;59.20;;;;;;4191158;28;20564;-64
2022/07/19 07:48:56;;;;;;;0.08;0.08;;;26.40;58.30;;;;;;4191698;28;20049;-64
2022/07/19 07:51:18;;;;;;;0.22;0.22;;;26.50;58.30;;;;;;4191587;28;20439;-65
2022/07/19 07:54:00;;;;;;;0.00;0.00;;;26.50;58.20;;;;;;4190841;28;20045;-65
2022/07/19 07:56:24;;;;;;;0.10;0.10;;;26.50;58.10;;;;;;4191700;28;20079;-65
2022/07/19 07:58:46;;;;;;;1.55;1.45;;;26.50;58.00;;;;;;4191397;28;20058;-64
2022/07/19 08:01:09;;;;;;;0.52;0.52;;;26.50;58.00;;;;;;4190597;28;20047;-64
2022/07/19 08:03:31;;;;;;;0.15;0.15;;;26.60;58.10;;;;;;4192483;28;20079;-64
2022/07/19 08:05:53;;;;;;;0.70;0.28;;;26.60;58.00;;;;;;4192026;28;20055;-64
2022/07/19 08:08:16;;;;;;;0.00;0.00;;;26.60;57.90;;;;;;4191508;28;20051;-65
2022/07/19 08:10:38;;;;;;;0.45;0.38;;;26.60;57.90;;;;;;4174279;28;20084;-64
2022/07/19 08:13:00;;;;;;;0.20;0.20;;;26.60;57.80;;;;;;4175604;28;20542;-65
2022/07/19 08:15:29;;;;;;;0.00;0.00;;;26.70;57.80;;;;;;4175047;28;20076;-64
2022/07/19 08:17:52;;;;;;;0.03;0.03;;;26.70;57.70;;;;;;4173995;28;20142;-65
2022/07/19 08:20:15;;;;;;;0.00;0.00;;;26.70;57.60;;;;;;4177481;28;20090;-64
2022/07/19 08:22:37;;;;;;;0.00;0.00;;;26.70;57.60;;;;;;4175094;28;20156;-65
2022/07/19 08:24:59;;;;;;;0.60;0.60;;;26.80;57.50;;;;;;4175718;28;20037;-64
2022/07/19 08:27:22;;;;;;;0.00;0.00;;;26.80;57.50;;;;;;4174972;28;20110;-64
2022/07/19 08:29:43;;;;;;;0.00;0.00;;;26.80;57.40;;;;;;4186368;28;20593;-64
2022/07/19 08:32:06;;;;;;;0.03;0.03;;;26.90;57.40;;;;;;4190437;28;20060;-65
2022/07/19 08:34:30;;;;;;;1.85;1.75;;;26.90;57.30;;;;;;4191918;28;20139;-65
2022/07/19 08:36:52;;;;;;;0.15;0.15;;;26.90;57.20;;;;;;4191751;28;20052;-64
2022/07/19 08:39:14;;;;;;;0.00;0.00;;;26.90;57.20;;;;;;4181622;28;20053;-65
2022/07/19 08:41:37;;;;;;;0.00;0.00;;;27.00;57.20;;;;;;4190646;28;20494;-64
2022/07/19 08:44:03;;;;;;;0.00;0.00;;;27.00;57.10;;;;;;4191367;28;20098;-65
2022/07/19 08:46:26;;;;;;;0.00;0.00;;;27.00;57.00;;;;;;4191638;28;20047;-64
2022/07/19 08:48:49;;;;;;;0.00;0.00;;;27.00;57.00;;;;;;4191202;28;20044;-64
2022/07/19 08:51:13;;;;;;;0.00;0.00;;;27.10;57.00;;;;;;4191605;28;20041;-64
2022/07/19 08:53:38;;;;;;;0.03;0.03;;;27.10;56.90;;;;;;4190326;28;20044;-64
2022/07/19 08:56:00;;;;;;;0.05;0.05;;;27.10;56.90;;;;;;4191716;28;20471;-64
2022/07/19 08:58:21;;;;;;;0.00;0.00;;;27.20;56.90;;;;;;4191128;28;20048;-65
2022/07/19 09:00:42;;;;;;;;;;;27.20;57.20;;;;;;4192358;28;20048;-67
2022/07/19 09:03:07;;;;;;;0.00;0.00;;;27.30;57.20;;;;;;4191994;28;19924;-64
2022/07/19 09:05:30;;;;;;;0.00;0.00;;;27.30;57.10;;;;;;4190655;28;20826;-65
2022/07/19 09:08:10;;;;;;;0.00;0.00;;;27.30;57.00;;;;;;4192049;28;20056;-64
2022/07/19 09:10:34;;;;;;;0.00;0.00;;;27.30;56.90;;;;;;4175213;28;20114;-65
2022/07/19 09:13:03;;;;;;;0.00;0.00;;;27.40;56.80;;;;;;4175321;28;20139;-65
2022/07/19 09:15:37;;;;;;;0.00;0.00;;;27.40;56.70;;;;;;4167515;28;20049;-65
2022/07/19 09:18:07;;;;;;;0.00;0.00;;;27.40;56.50;;;;;;4176715;28;20045;-65
2022/07/19 09:20:29;;;;;;;0.10;0.10;;;27.50;57.10;;;;;;4191504;28;20122;-65
2022/07/19 09:22:55;;;;;;;0.65;0.10;;;27.50;56.20;;;;;;4191738;28;20040;-64
2022/07/19 09:25:33;;;;;;;1.55;0.70;;;27.60;56.10;;;;;;4174974;28;20110;-64
2022/07/19 09:27:58;;;;;;;0.00;0.00;;;27.60;55.90;;;;;;4191417;28;20055;-65
2022/07/19 09:30:34;;;;;;;0.00;0.00;;;27.60;55.60;;;;;;4191660;28;20037;-65
2022/07/19 09:33:06;;;;;;;0.20;0.20;;;27.70;55.50;;;;;;4191061;28;20048;-65
2022/07/19 09:35:37;;;;;;;0.35;0.35;;;27.70;55.20;;;;;;4191446;28;20058;-64
2022/07/19 09:38:21;;;;;;;0.00;0.00;;;27.80;55.00;;;;;;4191595;28;20483;-64
2022/07/19 09:40:45;;;;;;;0.00;0.00;;;27.80;55.00;;;;;;4189626;28;20072;-64
2022/07/19 09:43:07;;;;;;;0.00;0.00;;;27.80;54.70;;;;;;4190932;28;20490;-65
2022/07/19 09:45:32;;;;;;;0.00;0.00;;;27.90;54.60;;;;;;4173535;28;20049;-64
2022/07/19 09:47:56;;;;;;;0.10;0.10;;;27.90;54.50;;;;;;4174910;28;20452;-65
2022/07/19 09:50:21;;;;;;;0.10;0.10;;;28.00;54.40;;;;;;4190070;28;20529;-64
2022/07/19 09:52:44;;;;;;;0.10;0.10;;;28.00;54.30;;;;;;4191357;28;20098;-64
2022/07/19 09:55:10;;;;;;;0.00;0.00;;;28.00;54.20;;;;;;4190751;28;20082;-64
2022/07/19 09:57:36;;;;;;;0.00;0.00;;;28.10;54.10;;;;;;4190567;28;20061;-64
2022/07/19 09:59:59;;;;;;;0.00;0.00;;;28.10;54.00;;;;;;4189672;28;20850;-64
2022/07/19 10:02:23;;;;;;;0.30;0.30;;;28.20;54.00;;;;;;4189930;28;20056;-64
2022/07/19 10:04:46;;;;;;;0.00;0.00;;;28.20;53.90;;;;;;4191193;28;20094;-65
2022/07/19 10:07:08;;;;;;;0.75;0.75;;;28.30;53.80;;;;;;4189126;28;20087;-64
2022/07/19 10:09:31;;;;;;;0.00;0.00;;;28.30;53.70;;;;;;4191139;28;20048;-64
2022/07/19 10:11:54;;;;;;;0.00;0.00;;;28.30;53.70;;;;;;4189149;28;20075;-64
2022/07/19 10:14:17;;;;;;;0.00;0.00;;;28.40;53.70;;;;;;4189122;28;20048;-64
2022/07/19 10:16:51;;;;;;;0.10;0.10;;;28.40;53.60;;;;;;4187337;28;20099;-64
2022/07/19 10:19:19;;;;;;;0.10;0.10;;;28.50;53.50;;;;;;4169275;28;20049;-64
2022/07/19 10:21:41;;;;;;;0.10;0.10;;;28.50;53.40;;;;;;4190120;28;20044;-64
2022/07/19 10:24:04;;;;;;;0.00;0.00;;;28.50;53.30;;;;;;4191022;28;20052;-64
2022/07/19 10:26:35;;;;;;;0.00;0.00;;;28.60;53.10;;;;;;4190305;28;20056;-64
2022/07/19 10:29:08;;;;;;;0.17;0.17;;;28.60;53.10;;;;;;4190500;28;20060;-64
2022/07/19 10:31:35;;;;;;;0.00;0.00;;;28.60;53.00;;;;;;4190477;28;20052;-64
2022/07/19 10:34:02;;;;;;;0.10;0.10;;;28.60;52.90;;;;;;4189973;28;20068;-64
2022/07/19 10:36:39;;;;;;;0.47;0.38;;;28.60;52.90;;;;;;4190253;28;20052;-63
2022/07/19 10:39:20;;;;;;;0.75;0.73;;;28.70;52.90;;;;;;4173190;28;20051;-63
2022/07/19 10:42:07;;;;;;;0.00;0.00;;;28.70;52.90;;;;;;4166682;28;20052;-63
2022/07/19 10:44:29;;;;;;;0.00;0.00;;;28.70;52.80;;;;;;4188960;28;20064;-63
2022/07/19 10:46:52;;;;;;;1.25;0.88;;;28.80;52.80;;;;;;4190078;28;20067;-63
2022/07/19 10:49:46;;;;;;;0.10;0.10;;;28.80;52.70;;;;;;4189895;28;20139;-62
2022/07/19 10:52:32;;;;;;;0.13;0.13;;;28.80;52.70;;;;;;4189457;28;20051;-64
2022/07/19 10:55:25;;;;;;;0.00;0.00;;;28.80;52.60;;;;;;4188050;28;20075;-63
2022/07/19 10:57:49;;;;;;;0.00;0.00;;;28.80;52.60;;;;;;4188833;28;20056;-64
2022/07/19 11:00:17;;;;;;;0.00;0.00;;;28.80;52.60;;;;;;4189983;28;20055;-63
2022/07/19 11:02:39;;;;;;;0.03;0.03;;;28.90;52.50;;;;;;4189614;28;20052;-63
2022/07/19 11:05:07;;;;;;;0.00;0.00;;;28.90;52.30;;;;;;4189693;28;20056;-66
2022/07/19 11:07:29;;;;;;;0.00;0.00;;;28.90;52.40;;;;;;4189794;28;20553;-66
2022/07/19 11:09:54;;;;;;;0.22;0.22;;;28.90;52.30;;;;;;4187947;28;20071;-67
2022/07/19 11:12:34;;;;;;;0.00;0.00;;;29.00;52.20;;;;;;4189910;28;20044;-66
2022/07/19 11:14:57;;;;;;;0.20;0.20;;;29.00;52.20;;;;;;4190178;28;20135;-65
2022/07/19 11:17:36;;;;;;;0.10;0.10;;;29.00;52.20;;;;;;4174316;28;20052;-64
2022/07/19 11:20:07;;;;;;;0.05;0.05;;;29.00;52.10;;;;;;4172993;28;20049;-64
2022/07/19 11:22:37;;;;;;;0.00;0.00;;;29.10;52.10;;;;;;4188724;28;20404;-64
2022/07/19 11:24:59;;;;;;;0.10;0.10;;;29.10;52.20;;;;;;4189262;28;20047;-64
2022/07/19 11:27:21;;;;;;;0.00;0.00;;;29.10;52.10;;;;;;4188546;28;20091;-64
2022/07/19 11:29:59;;;;;;;0.13;0.13;;;29.20;51.90;;;;;;4189516;28;20411;-64
2022/07/19 11:32:21;;;;;;;0.10;0.10;;;29.20;51.90;;;;;;4189026;28;20047;-65
2022/07/19 11:34:54;;;;;;;0.20;0.20;;;29.20;51.90;;;;;;4189412;28;20497;-65
2022/07/19 11:37:24;;;;;;;0.75;0.55;;;29.20;51.80;;;;;;4189416;28;20052;-64
2022/07/19 11:39:48;;;;;;;0.00;0.00;;;29.20;51.80;;;;;;4189196;28;20044;-65
2022/07/19 11:42:11;;;;;;;0.00;0.00;;;29.30;51.60;;;;;;4187674;28;20052;-64
2022/07/19 11:44:38;;;;;;;0.38;0.30;;;29.30;51.70;;;;;;4187894;28;20060;-65
2022/07/19 11:47:00;;;;;;;0.00;0.00;;;29.30;51.30;;;;;;4188785;28;20053;-65
2022/07/19 11:49:22;;;;;;;0.10;0.10;;;29.30;51.40;;;;;;4187258;28;20053;-65
2022/07/19 11:51:44;;;;;;;0.10;0.10;;;29.40;51.20;;;;;;4188731;28;20048;-64
2022/07/19 11:54:09;;;;;;;0.25;0.25;;;29.40;51.50;;;;;;4186356;28;20052;-64
2022/07/19 11:56:33;;;;;;;0.00;0.00;;;29.50;51.50;;;;;;4189563;28;20053;-64
2022/07/19 11:58:58;;;;;;;0.00;0.00;;;29.50;51.10;;;;;;4189724;28;20076;-64
2022/07/19 12:01:25;;;;;;;0.00;0.00;;;29.50;51.10;;;;;;4202670;28;20503;-64
2022/07/19 12:03:54;;;;;;;0.00;0.00;;;29.60;50.70;;;;;;4188948;28;20542;-65
2022/07/19 12:06:19;;;;;;;2.10;1.08;;;29.60;50.70;;;;;;4189520;28;20097;-64
2022/07/19 12:08:43;;;;;;;0.00;0.00;;;29.60;50.30;;;;;;4173619;28;20516;-64
2022/07/19 12:11:23;;;;;;;0.00;0.00;;;29.60;50.50;;;;;;4172844;28;20045;-64
2022/07/19 12:13:45;;;;;;;0.10;0.10;;;29.70;50.20;;;;;;4170572;28;20056;-63
2022/07/19 12:16:13;;;;;;;0.00;0.00;;;29.70;50.00;;;;;;4172490;28;20405;-64
2022/07/19 12:18:45;;;;;;;0.00;0.00;;;29.70;50.10;;;;;;4186602;28;20064;-64
2022/07/19 12:21:23;;;;;;;0.00;0.00;;;29.70;50.00;;;;;;4189167;28;20051;-67
2022/07/19 12:24:10;;;;;;;0.05;0.05;;;29.70;49.70;;;;;;4188705;28;20059;-67
2022/07/19 12:26:34;;;;;;;0.00;0.00;;;29.80;49.90;;;;;;4188432;28;20058;-67
2022/07/19 12:29:22;;;;;;;0.00;0.00;;;29.80;49.30;;;;;;4187678;28;20041;-67
2022/07/19 12:31:45;;;;;;;0.00;0.00;;;29.80;49.30;;;;;;4188898;28;20036;-67